createdAt,value
2018-07-06T00:00:39.517Z,39.9
2018-07-06T00:01:30.027Z,39.9
2018-07-06T00:02:19.348Z,39.8
2018-07-06T00:03:10.190Z,39.8
2018-07-06T00:04:00.241Z,39.8
2018-07-06T00:04:49.730Z,39.8
2018-07-06T00:05:40.075Z,39.8
2018-07-06T00:06:30.400Z,39.8
2018-07-06T00:07:20.491Z,39.8
2018-07-06T00:08:09.729Z,39.8
2018-07-06T00:09:00.340Z,39.8
2018-07-06T00:09:50.431Z,39.8
2018-07-06T00:10:40.915Z,39.8
2018-07-06T00:11:30.814Z,39.8
2018-07-06T00:12:21.231Z,39.8
2018-07-06T00:13:10.415Z,39.8
2018-07-06T00:14:00.166Z,39.8
2018-07-06T00:14:50.609Z,39.8
2018-07-06T00:15:41.134Z,39.7
2018-07-06T00:16:31.211Z,39.8
2018-07-06T00:17:21.287Z,39.7
2018-07-06T00:18:11.340Z,39.7
2018-07-06T00:19:00.872Z,39.7
2018-07-06T00:19:51.194Z,39.7
2018-07-06T00:20:41.867Z,39.7
2018-07-06T00:21:31.314Z,39.6
2018-07-06T00:22:21.634Z,39.6
2018-07-06T00:23:11.991Z,39.6
2018-07-06T00:24:01.241Z,39.6
2018-07-06T00:24:51.596Z,39.6
2018-07-06T00:25:41.079Z,39.6
2018-07-06T00:26:31.223Z,39.6
2018-07-06T00:27:20.356Z,39.6
2018-07-06T00:28:12.119Z,39.6
2018-07-06T00:29:01.916Z,39.6
2018-07-06T00:29:51.996Z,39.6
2018-07-06T00:30:41.790Z,39.6
2018-07-06T00:31:32.631Z,39.6
2018-07-06T00:32:22.135Z,39.6
2018-07-06T00:33:12.727Z,39.6
2018-07-06T00:34:02.824Z,39.6
2018-07-06T00:34:52.366Z,39.6
2018-07-06T00:35:42.687Z,39.5
2018-07-06T00:36:32.763Z,39.5
2018-07-06T00:37:22.562Z,39.5
2018-07-06T00:38:12.048Z,39.5
2018-07-06T00:39:03.012Z,39.5
2018-07-06T00:39:53.301Z,39.5
2018-07-06T00:40:43.387Z,39.5
2018-07-06T00:41:33.174Z,39.4
2018-07-06T00:42:23.501Z,39.4
2018-07-06T00:43:13.019Z,39.4
2018-07-06T00:44:03.121Z,39.4
2018-07-06T00:44:53.109Z,39.4
2018-07-06T00:45:43.231Z,39.4
2018-07-06T00:46:33.304Z,39.4
2018-07-06T00:47:23.330Z,39.4
2018-07-06T00:48:13.388Z,39.4
2018-07-06T00:49:02.935Z,39.4
2018-07-06T00:49:54.080Z,39.4
2018-07-06T00:50:43.875Z,39.4
2018-07-06T00:51:33.641Z,39.4
2018-07-06T00:52:24.006Z,39.4
2018-07-06T00:53:13.486Z,39.3
2018-07-06T00:54:04.156Z,39.4
2018-07-06T00:54:54.959Z,39.3
2018-07-06T00:55:44.386Z,39.3
2018-07-06T00:56:34.326Z,39.3
2018-07-06T00:57:24.381Z,39.3
2018-07-06T00:58:14.452Z,39.3
2018-07-06T00:59:04.200Z,39.3
2018-07-06T00:59:54.674Z,39.3
2018-07-06T01:00:44.666Z,39.3
2018-07-06T01:01:35.230Z,39.3
2018-07-06T01:02:24.200Z,39.3
2018-07-06T01:03:14.810Z,39.3
2018-07-06T01:04:05.138Z,39.3
2018-07-06T01:04:55.216Z,39.3
2018-07-06T01:05:44.724Z,39.3
2018-07-06T01:06:34.827Z,39.2
2018-07-06T01:07:25.130Z,39.2
2018-07-06T01:08:15.494Z,39.3
2018-07-06T01:09:05.002Z,39.2
2018-07-06T01:09:54.790Z,39.2
2018-07-06T01:10:44.844Z,39.2
2018-07-06T01:11:35.493Z,39.2
2018-07-06T01:12:25.273Z,39.2
2018-07-06T01:13:15.570Z,39.2
2018-07-06T01:14:05.685Z,39.2
2018-07-06T01:14:56.070Z,39.1
2018-07-06T01:15:45.840Z,39.1
2018-07-06T01:16:35.576Z,39.1
2018-07-06T01:17:25.963Z,39.1
2018-07-06T01:18:15.472Z,39.1
2018-07-06T01:19:06.366Z,39.1
2018-07-06T01:19:56.159Z,39.1
2018-07-06T01:20:45.887Z,39.1
2018-07-06T01:21:35.993Z,39.1
2018-07-06T01:22:26.318Z,39.1
2018-07-06T01:23:16.413Z,39.1
2018-07-06T01:24:05.937Z,39.1
2018-07-06T01:24:56.820Z,39.1
2018-07-06T01:25:46.664Z,39.1
2018-07-06T01:26:36.726Z,39.1
2018-07-06T01:27:26.745Z,39.1
2018-07-06T01:28:17.047Z,39.1
2018-07-06T01:29:06.855Z,39
2018-07-06T01:29:56.650Z,39
2018-07-06T01:30:46.442Z,39
2018-07-06T01:31:37.025Z,39
2018-07-06T01:32:26.563Z,39
2018-07-06T01:33:16.890Z,38.9
2018-07-06T01:34:06.969Z,38.9
2018-07-06T01:34:56.993Z,38.9
2018-07-06T01:35:46.527Z,38.9
2018-07-06T01:36:37.129Z,38.9
2018-07-06T01:37:27.561Z,38.9
2018-07-06T01:38:17.258Z,38.9
2018-07-06T01:39:07.631Z,38.9
2018-07-06T01:39:57.422Z,38.9
2018-07-06T01:40:48.016Z,38.9
2018-07-06T01:41:37.229Z,38.9
2018-07-06T01:42:27.862Z,38.9
2018-07-06T01:43:17.956Z,38.9
2018-07-06T01:44:07.792Z,38.9
2018-07-06T01:44:57.277Z,38.9
2018-07-06T01:45:48.121Z,38.9
2018-07-06T01:46:38.153Z,38.9
2018-07-06T01:47:27.695Z,38.9
2018-07-06T01:48:17.562Z,38.9
2018-07-06T01:49:07.639Z,38.9
2018-07-06T01:49:58.444Z,38.8
2018-07-06T01:50:47.781Z,38.8
2018-07-06T01:51:38.113Z,38.8
2018-07-06T01:52:28.193Z,38.8
2018-07-06T01:53:18.552Z,38.8
2018-07-06T01:54:08.053Z,38.8
2018-07-06T01:54:58.636Z,38.8
2018-07-06T01:55:47.855Z,38.8
2018-07-06T01:56:38.421Z,38.8
2018-07-06T01:57:28.579Z,38.8
2018-07-06T01:58:18.352Z,38.8
2018-07-06T01:59:08.907Z,38.8
2018-07-06T01:59:59.270Z,38.8
2018-07-06T02:00:49.031Z,38.8
2018-07-06T02:01:39.681Z,38.8
2018-07-06T02:02:29.165Z,38.8
2018-07-06T02:03:19.763Z,38.8
2018-07-06T02:04:09.286Z,38.7
2018-07-06T02:04:59.071Z,38.7
2018-07-06T02:05:49.989Z,38.7
2018-07-06T02:06:39.463Z,38.7
2018-07-06T02:07:29.808Z,38.7
2018-07-06T02:08:19.918Z,38.7
2018-07-06T02:09:09.673Z,38.7
2018-07-06T02:10:00.283Z,38.7
2018-07-06T02:10:49.781Z,38.7
2018-07-06T02:11:40.160Z,38.6
2018-07-06T02:12:29.456Z,38.6
2018-07-06T02:13:20.066Z,38.6
2018-07-06T02:14:10.096Z,38.6
2018-07-06T02:15:00.370Z,38.6
2018-07-06T02:15:50.210Z,38.6
2018-07-06T02:16:40.764Z,38.6
2018-07-06T02:17:30.016Z,38.6
2018-07-06T02:18:20.657Z,38.6
2018-07-06T02:19:10.956Z,38.6
2018-07-06T02:20:00.749Z,38.6
2018-07-06T02:20:51.091Z,38.6
2018-07-06T02:21:41.021Z,38.6
2018-07-06T02:22:30.943Z,38.6
2018-07-06T02:23:21.024Z,38.6
2018-07-06T02:24:10.864Z,38.6
2018-07-06T02:25:01.168Z,38.5
2018-07-06T02:25:51.240Z,38.5
2018-07-06T02:26:41.347Z,38.5
2018-07-06T02:27:30.843Z,38.5
2018-07-06T02:28:20.963Z,38.5
2018-07-06T02:29:11.264Z,38.5
2018-07-06T02:30:01.893Z,38.5
2018-07-06T02:30:51.069Z,38.5
2018-07-06T02:31:41.794Z,38.5
2018-07-06T02:32:31.544Z,38.5
2018-07-06T02:33:20.972Z,38.4
2018-07-06T02:34:11.888Z,38.4
2018-07-06T02:35:01.996Z,38.4
2018-07-06T02:35:52.362Z,38.4
2018-07-06T02:36:42.111Z,38.4
2018-07-06T02:37:32.155Z,38.4
2018-07-06T02:38:22.220Z,38.4
2018-07-06T02:39:12.590Z,38.4
2018-07-06T02:40:02.388Z,38.4
2018-07-06T02:40:52.547Z,38.4
2018-07-06T02:41:42.212Z,38.4
2018-07-06T02:42:32.000Z,38.4
2018-07-06T02:43:22.342Z,38.4
2018-07-06T02:44:12.972Z,38.4
2018-07-06T02:45:02.487Z,38.4
2018-07-06T02:45:52.860Z,38.4
2018-07-06T02:46:42.872Z,38.4
2018-07-06T02:47:32.644Z,38.4
2018-07-06T02:48:22.712Z,38.4
2018-07-06T02:49:12.768Z,38.4
2018-07-06T02:50:03.506Z,38.3
2018-07-06T02:50:53.460Z,38.3
2018-07-06T02:51:42.981Z,38.3
2018-07-06T02:52:33.335Z,38.3
2018-07-06T02:53:22.644Z,38.3
2018-07-06T02:54:12.492Z,38.3
2018-07-06T02:55:03.356Z,38.3
2018-07-06T02:55:53.112Z,38.3
2018-07-06T02:56:43.265Z,38.3
2018-07-06T02:57:33.256Z,38.3
2018-07-06T02:58:22.749Z,38.3
2018-07-06T02:59:13.117Z,38.3
2018-07-06T03:00:03.088Z,38.3
2018-07-06T03:00:53.431Z,38.3
2018-07-06T03:01:43.743Z,38.3
2018-07-06T03:02:34.082Z,38.3
2018-07-06T03:03:24.440Z,38.2
2018-07-06T03:04:13.947Z,38.2
2018-07-06T03:05:04.307Z,38.2
2018-07-06T03:05:54.348Z,38.2
2018-07-06T03:06:44.428Z,38.2
2018-07-06T03:07:34.773Z,38.2
2018-07-06T03:08:24.800Z,38.2
2018-07-06T03:09:14.078Z,38.2
2018-07-06T03:10:04.695Z,38.2
2018-07-06T03:10:54.472Z,38.1
2018-07-06T03:11:44.795Z,38.1
2018-07-06T03:12:35.130Z,38.1
2018-07-06T03:13:24.983Z,38.1
2018-07-06T03:14:15.273Z,38.1
2018-07-06T03:15:05.424Z,38.1
2018-07-06T03:15:55.225Z,38.1
2018-07-06T03:16:45.247Z,38.1
2018-07-06T03:17:35.250Z,38.1
2018-07-06T03:18:24.771Z,38.1
2018-07-06T03:19:15.103Z,38.1
2018-07-06T03:20:04.660Z,38.1
2018-07-06T03:20:55.283Z,38.1
2018-07-06T03:21:45.334Z,38.1
2018-07-06T03:22:35.400Z,38.1
2018-07-06T03:23:25.973Z,38.1
2018-07-06T03:24:15.509Z,38.1
2018-07-06T03:25:20.754Z,38.1
2018-07-06T03:25:55.056Z,38
2018-07-06T03:26:45.716Z,38
2018-07-06T03:27:35.190Z,38.1
2018-07-06T03:28:27.242Z,38
2018-07-06T03:29:15.880Z,38
2018-07-06T03:30:06.293Z,38
2018-07-06T03:30:56.394Z,38
2018-07-06T03:31:45.902Z,37.9
2018-07-06T03:32:36.682Z,37.9
2018-07-06T03:33:25.915Z,37.9
2018-07-06T03:34:16.256Z,37.9
2018-07-06T03:35:06.395Z,37.9
2018-07-06T03:35:56.932Z,37.9
2018-07-06T03:36:47.000Z,37.9
2018-07-06T03:37:36.805Z,37.9
2018-07-06T03:38:26.602Z,38
2018-07-06T03:39:16.951Z,37.9
2018-07-06T03:40:07.265Z,37.9
2018-07-06T03:40:56.827Z,37.9
2018-07-06T03:41:47.114Z,37.9
2018-07-06T03:42:36.347Z,37.9
2018-07-06T03:43:27.247Z,37.9
2018-07-06T03:44:16.850Z,37.9
2018-07-06T03:45:07.404Z,37.9
2018-07-06T03:45:57.712Z,37.9
2018-07-06T03:46:46.990Z,37.9
2018-07-06T03:47:37.343Z,37.9
2018-07-06T03:48:27.659Z,37.9
2018-07-06T03:49:17.963Z,37.9
2018-07-06T03:50:07.049Z,37.9
2018-07-06T03:50:56.779Z,37.9
2018-07-06T03:51:47.411Z,37.9
2018-07-06T03:52:37.531Z,37.8
2018-07-06T03:53:27.815Z,37.8
2018-07-06T03:54:18.373Z,37.9
2018-07-06T03:55:08.199Z,37.9
2018-07-06T03:55:58.506Z,37.9
2018-07-06T03:56:48.122Z,37.8
2018-07-06T03:57:37.806Z,37.8
2018-07-06T03:58:28.124Z,37.8
2018-07-06T03:59:18.238Z,37.8
2018-07-06T04:00:08.940Z,37.8
2018-07-06T04:00:58.854Z,37.8
2018-07-06T04:01:48.415Z,37.8
2018-07-06T04:02:38.491Z,37.8
2018-07-06T04:03:29.139Z,37.8
2018-07-06T04:04:18.949Z,37.8
2018-07-06T04:05:08.662Z,37.8
2018-07-06T04:05:58.780Z,37.8
2018-07-06T04:06:48.832Z,37.8
2018-07-06T04:07:39.133Z,37.8
2018-07-06T04:08:28.337Z,37.8
2018-07-06T04:09:19.505Z,37.8
2018-07-06T04:10:09.249Z,37.8
2018-07-06T04:10:59.707Z,37.8
2018-07-06T04:11:49.777Z,37.8
2018-07-06T04:12:39.476Z,37.7
2018-07-06T04:13:29.279Z,37.7
2018-07-06T04:14:19.878Z,37.7
2018-07-06T04:15:09.964Z,37.7
2018-07-06T04:16:00.213Z,37.7
2018-07-06T04:16:49.794Z,37.7
2018-07-06T04:17:40.150Z,37.7
2018-07-06T04:18:29.978Z,37.7
2018-07-06T04:19:19.739Z,37.6
2018-07-06T04:20:10.381Z,37.6
2018-07-06T04:20:59.863Z,37.6
2018-07-06T04:21:50.217Z,37.6
2018-07-06T04:22:40.632Z,37.6
2018-07-06T04:23:29.510Z,37.6
2018-07-06T04:24:20.690Z,37.6
2018-07-06T04:25:10.503Z,37.6
2018-07-06T04:26:00.531Z,37.6
2018-07-06T04:26:49.875Z,37.6
2018-07-06T04:27:40.387Z,37.6
2018-07-06T04:28:30.491Z,37.6
2018-07-06T04:29:21.120Z,37.5
2018-07-06T04:30:10.874Z,37.6
2018-07-06T04:31:00.371Z,37.6
2018-07-06T04:31:51.371Z,37.5
2018-07-06T04:32:41.080Z,37.6
2018-07-06T04:33:31.378Z,37.5
2018-07-06T04:34:21.222Z,37.5
2018-07-06T04:35:11.578Z,37.5
2018-07-06T04:36:01.298Z,37.5
2018-07-06T04:36:51.436Z,37.5
2018-07-06T04:37:41.531Z,37.5
2018-07-06T04:38:31.540Z,37.5
2018-07-06T04:39:21.589Z,37.5
2018-07-06T04:40:11.354Z,37.5
2018-07-06T04:41:02.011Z,37.4
2018-07-06T04:41:51.507Z,37.4
2018-07-06T04:42:42.138Z,37.4
2018-07-06T04:43:31.901Z,37.4
2018-07-06T04:44:22.724Z,37.4
2018-07-06T04:45:11.543Z,37.4
2018-07-06T04:46:01.820Z,37.4
2018-07-06T04:46:51.958Z,37.4
2018-07-06T04:47:42.593Z,37.4
2018-07-06T04:48:32.305Z,37.4
2018-07-06T04:49:21.872Z,37.4
2018-07-06T04:50:12.433Z,37.4
2018-07-06T04:51:03.235Z,37.4
2018-07-06T04:51:52.840Z,37.4
2018-07-06T04:52:42.999Z,37.4
2018-07-06T04:53:32.995Z,37.4
2018-07-06T04:54:23.018Z,37.4
2018-07-06T04:55:12.773Z,37.4
2018-07-06T04:56:02.847Z,37.4
2018-07-06T04:56:52.709Z,37.4
2018-07-06T04:57:42.646Z,37.4
2018-07-06T04:58:32.797Z,37.4
2018-07-06T04:59:22.047Z,37.4
2018-07-06T05:00:12.918Z,37.4
2018-07-06T05:01:02.742Z,37.4
2018-07-06T05:01:53.304Z,37.4
2018-07-06T05:02:43.689Z,37.3
2018-07-06T05:03:32.449Z,37.3
2018-07-06T05:04:23.265Z,37.3
2018-07-06T05:05:12.754Z,37.3
2018-07-06T05:06:03.480Z,37.3
2018-07-06T05:06:53.251Z,37.3
2018-07-06T05:07:43.375Z,37.3
2018-07-06T05:08:33.351Z,37.3
2018-07-06T05:09:23.160Z,37.3
2018-07-06T05:10:13.290Z,37.3
2018-07-06T05:11:03.296Z,37.3
2018-07-06T05:11:53.347Z,37.3
2018-07-06T05:12:43.726Z,37.3
2018-07-06T05:13:33.937Z,37.3
2018-07-06T05:14:23.845Z,37.3
2018-07-06T05:15:13.655Z,37.3
2018-07-06T05:16:04.439Z,37.3
2018-07-06T05:16:54.822Z,37.3
2018-07-06T05:17:44.336Z,37.3
2018-07-06T05:18:34.914Z,37.3
2018-07-06T05:19:24.986Z,37.3
2018-07-06T05:20:14.738Z,37.3
2018-07-06T05:21:04.851Z,37.3
2018-07-06T05:21:54.876Z,37.3
2018-07-06T05:22:45.203Z,37.3
2018-07-06T05:23:35.033Z,37.3
2018-07-06T05:24:25.152Z,37.3
2018-07-06T05:25:14.630Z,37.3
2018-07-06T05:26:05.255Z,37.2
2018-07-06T05:26:55.247Z,37.3
2018-07-06T05:27:45.614Z,37.3
2018-07-06T05:28:35.169Z,37.2
2018-07-06T05:29:24.888Z,37.2
2018-07-06T05:30:15.237Z,37.2
2018-07-06T05:31:05.572Z,37.2
2018-07-06T05:31:56.077Z,37.2
2018-07-06T05:32:45.502Z,37.2
2018-07-06T05:33:36.028Z,37.2
2018-07-06T05:34:25.866Z,37.2
2018-07-06T05:35:16.198Z,37.2
2018-07-06T05:36:06.261Z,37.1
2018-07-06T05:36:56.311Z,37.2
2018-07-06T05:37:46.537Z,37.1
2018-07-06T05:38:35.882Z,37.1
2018-07-06T05:39:25.947Z,37.1
2018-07-06T05:40:16.569Z,37.1
2018-07-06T05:41:05.536Z,37.1
2018-07-06T05:41:56.693Z,37.1
2018-07-06T05:42:46.500Z,37.1
2018-07-06T05:43:36.420Z,37.1
2018-07-06T05:44:26.319Z,37.1
2018-07-06T05:45:16.536Z,37.1
2018-07-06T05:46:06.463Z,37.1
2018-07-06T05:46:55.991Z,37.1
2018-07-06T05:47:46.376Z,37.1
2018-07-06T05:48:36.803Z,37.1
2018-07-06T05:49:27.039Z,37.1
2018-07-06T05:50:16.840Z,37.1
2018-07-06T05:51:07.420Z,37.1
2018-07-06T05:51:57.223Z,37.1
2018-07-06T05:52:47.665Z,37.1
2018-07-06T05:53:37.605Z,37.1
2018-07-06T05:54:27.442Z,37.1
2018-07-06T05:55:16.954Z,37.1
2018-07-06T05:56:07.330Z,37.1
2018-07-06T05:56:57.603Z,37
2018-07-06T05:57:47.391Z,37.1
2018-07-06T05:58:37.515Z,37.1
2018-07-06T05:59:27.796Z,37.1
2018-07-06T06:00:17.863Z,37.1
2018-07-06T06:01:07.929Z,37.1
2018-07-06T06:01:57.677Z,37
2018-07-06T06:02:48.340Z,37
2018-07-06T06:03:37.833Z,37
2018-07-06T06:04:27.975Z,37
2018-07-06T06:05:17.743Z,37
2018-07-06T06:06:08.601Z,37
2018-07-06T06:06:58.160Z,40.1
2018-07-06T06:07:47.640Z,43.6
2018-07-06T06:08:38.735Z,43.1
2018-07-06T06:09:28.415Z,45.9
2018-07-06T06:10:18.176Z,46.4
2018-07-06T06:11:08.226Z,46
2018-07-06T06:11:58.517Z,45.4
2018-07-06T06:12:48.637Z,44.8
2018-07-06T06:13:38.243Z,44.4
2018-07-06T06:14:28.171Z,44.1
2018-07-06T06:15:18.093Z,43.7
2018-07-06T06:16:08.800Z,43.4
2018-07-06T06:16:59.183Z,43.1
2018-07-06T06:17:49.500Z,42.8
2018-07-06T06:18:40.880Z,42.5
2018-07-06T06:19:29.368Z,42.3
2018-07-06T06:20:18.836Z,42.1
2018-07-06T06:21:09.171Z,41.8
2018-07-06T06:21:59.265Z,41.7
2018-07-06T06:22:49.895Z,41.5
2018-07-06T06:23:39.958Z,41.3
2018-07-06T06:24:29.828Z,41.2
2018-07-06T06:25:19.686Z,41
2018-07-06T06:26:10.149Z,40.9
2018-07-06T06:26:59.392Z,40.8
2018-07-06T06:27:50.272Z,40.7
2018-07-06T06:28:39.500Z,40.6
2018-07-06T06:29:30.463Z,44.5
2018-07-06T06:30:19.166Z,44.8
2018-07-06T06:31:09.334Z,46.8
2018-07-06T06:32:00.320Z,48
2018-07-06T06:32:50.740Z,48.1
2018-07-06T06:33:41.760Z,47.8
2018-07-06T06:34:30.795Z,47.6
2018-07-06T06:35:20.022Z,47.6
2018-07-06T06:36:10.657Z,47.8
2018-07-06T06:37:00.717Z,48.1
2018-07-06T06:37:50.451Z,48.3
2018-07-06T06:38:40.534Z,48.4
2018-07-06T06:39:32.245Z,48.4
2018-07-06T06:40:20.677Z,48.5
2018-07-06T06:41:11.019Z,48.6
2018-07-06T06:42:01.401Z,48.6
2018-07-06T06:42:51.137Z,48.8
2018-07-06T06:43:41.280Z,48.9
2018-07-06T06:44:31.290Z,48.9
2018-07-06T06:45:21.216Z,49.1
2018-07-06T06:46:11.725Z,49.1
2018-07-06T06:47:00.890Z,49.2
2018-07-06T06:47:51.254Z,49.3
2018-07-06T06:48:41.586Z,49.4
2018-07-06T06:49:31.125Z,49.4
2018-07-06T06:50:21.518Z,49.5
2018-07-06T06:51:11.773Z,49.6
2018-07-06T06:52:01.311Z,49.7
2018-07-06T06:52:51.925Z,49.8
2018-07-06T06:53:41.662Z,49.9
2018-07-06T06:54:32.059Z,49.9
2018-07-06T06:55:21.648Z,50
2018-07-06T06:56:12.482Z,50.1
2018-07-06T06:57:02.515Z,50.2
2018-07-06T06:57:51.753Z,50.3
2018-07-06T06:58:42.631Z,50.3
2018-07-06T06:59:32.422Z,50.4
2018-07-06T07:00:30.912Z,50.5
2018-07-06T07:01:12.997Z,50.6
2018-07-06T07:02:02.368Z,50.3
2018-07-06T07:02:53.001Z,50.2
2018-07-06T07:03:42.780Z,50.1
2018-07-06T07:04:32.872Z,49.9
2018-07-06T07:05:23.068Z,49.4
2018-07-06T07:06:13.082Z,48.6
2018-07-06T07:07:02.755Z,48.2
2018-07-06T07:07:53.720Z,47.6
2018-07-06T07:08:43.224Z,47.1
2018-07-06T07:09:33.332Z,47.1
2018-07-06T07:10:23.382Z,47.2
2018-07-06T07:11:13.153Z,47.3
2018-07-06T07:12:03.190Z,47.4
2018-07-06T07:12:53.247Z,47.4
2018-07-06T07:13:43.878Z,47.4
2018-07-06T07:14:34.041Z,47.6
2018-07-06T07:15:23.706Z,47.6
2018-07-06T07:16:12.959Z,47.8
2018-07-06T07:17:03.670Z,47.9
2018-07-06T07:17:53.140Z,48.1
2018-07-06T07:18:44.338Z,48.3
2018-07-06T07:19:33.466Z,48.4
2018-07-06T07:20:23.051Z,48.6
2018-07-06T07:21:13.290Z,48.7
2018-07-06T07:22:04.287Z,48.8
2018-07-06T07:22:54.347Z,48.9
2018-07-06T07:23:44.680Z,49.1
2018-07-06T07:24:34.404Z,49.3
2018-07-06T07:25:24.483Z,49.4
2018-07-06T07:26:14.265Z,49.6
2018-07-06T07:27:04.621Z,49.8
2018-07-06T07:27:54.684Z,49.9
2018-07-06T07:28:44.486Z,50
2018-07-06T07:29:34.582Z,50.1
2018-07-06T07:30:24.596Z,50.3
2018-07-06T07:31:14.407Z,50.4
2018-07-06T07:32:05.020Z,50.5
2018-07-06T07:32:55.108Z,50.6
2018-07-06T07:33:44.638Z,50.8
2018-07-06T07:34:34.924Z,50.9
2018-07-06T07:35:25.243Z,51
2018-07-06T07:36:15.317Z,51.1
2018-07-06T07:37:05.654Z,51.3
2018-07-06T07:37:54.715Z,51.4
2018-07-06T07:38:45.562Z,51.4
2018-07-06T07:39:35.401Z,51.6
2018-07-06T07:40:25.528Z,51.7
2018-07-06T07:41:16.088Z,51.8
2018-07-06T07:42:05.802Z,51.9
2018-07-06T07:42:55.833Z,52
2018-07-06T07:43:45.943Z,52.1
2018-07-06T07:44:35.737Z,52.1
2018-07-06T07:45:26.475Z,52.1
2018-07-06T07:46:16.466Z,52.2
2018-07-06T07:47:06.611Z,52.3
2018-07-06T07:47:55.769Z,52.4
2018-07-06T07:48:46.329Z,52.5
2018-07-06T07:49:36.375Z,52.6
2018-07-06T07:50:26.713Z,52.7
2018-07-06T07:51:16.293Z,52.8
2018-07-06T07:52:06.592Z,52.9
2018-07-06T07:52:56.649Z,53.1
2018-07-06T07:53:46.986Z,53.1
2018-07-06T07:54:37.887Z,53.3
2018-07-06T07:55:26.584Z,53.4
2018-07-06T07:56:16.889Z,53.4
2018-07-06T07:57:07.341Z,53.5
2018-07-06T07:57:57.324Z,53.6
2018-07-06T07:58:47.100Z,53.5
2018-07-06T07:59:37.147Z,52.9
2018-07-06T08:00:27.866Z,52.2
2018-07-06T08:01:20.327Z,51.8
2018-07-06T08:02:07.882Z,51.8
2018-07-06T08:02:57.753Z,51.9
2018-07-06T08:03:47.202Z,52
2018-07-06T08:04:37.324Z,52.2
2018-07-06T08:05:27.621Z,52.3
2018-07-06T08:06:18.029Z,52.4
2018-07-06T08:07:08.142Z,52.5
2018-07-06T08:07:58.139Z,52.6
2018-07-06T08:08:47.378Z,52.7
2018-07-06T08:09:37.121Z,52.8
2018-07-06T08:10:28.029Z,53
2018-07-06T08:11:17.551Z,53.1
2018-07-06T08:12:07.335Z,53.3
2018-07-06T08:12:58.136Z,53.4
2018-07-06T08:13:48.554Z,53.5
2018-07-06T08:14:38.889Z,53.7
2018-07-06T08:15:28.184Z,53.8
2018-07-06T08:16:18.756Z,53.9
2018-07-06T08:17:08.573Z,54
2018-07-06T08:17:58.593Z,54.1
2018-07-06T08:18:48.688Z,54.2
2018-07-06T08:19:39.029Z,54.3
2018-07-06T08:20:29.066Z,54.4
2018-07-06T08:21:18.869Z,54.6
2018-07-06T08:22:09.241Z,54.7
2018-07-06T08:22:58.723Z,54.8
2018-07-06T08:23:48.822Z,54.9
2018-07-06T08:24:38.842Z,55
2018-07-06T08:25:30.018Z,55.1
2018-07-06T08:26:19.024Z,55.1
2018-07-06T08:27:09.674Z,55.3
2018-07-06T08:27:59.466Z,55.4
2018-07-06T08:28:49.259Z,55.4
2018-07-06T08:29:39.244Z,55.6
2018-07-06T08:30:30.042Z,55.6
2018-07-06T08:31:19.657Z,55.7
2018-07-06T08:32:09.738Z,55.8
2018-07-06T08:32:59.535Z,55.9
2018-07-06T08:33:49.617Z,55.9
2018-07-06T08:34:39.924Z,56
2018-07-06T08:35:29.430Z,56.1
2018-07-06T08:36:19.576Z,56.1
2018-07-06T08:37:10.453Z,56.3
2018-07-06T08:38:00.019Z,56.3
2018-07-06T08:38:49.418Z,56.3
2018-07-06T08:39:40.754Z,56.4
2018-07-06T08:40:30.709Z,56.5
2018-07-06T08:41:20.473Z,56.6
2018-07-06T08:42:10.837Z,56.6
2018-07-06T08:43:00.840Z,56.7
2018-07-06T08:43:49.311Z,56.8
2018-07-06T08:44:40.167Z,56.9
2018-07-06T08:45:30.807Z,56.9
2018-07-06T08:46:20.569Z,57
2018-07-06T08:47:10.916Z,57.1
2018-07-06T08:48:00.698Z,57.2
2018-07-06T08:48:50.761Z,57.3
2018-07-06T08:49:40.811Z,57.3
2018-07-06T08:50:30.723Z,57.4
2018-07-06T08:51:21.593Z,57.4
2018-07-06T08:52:09.581Z,57.5
2018-07-06T08:53:00.595Z,57.5
2018-07-06T08:53:51.169Z,57.6
2018-07-06T08:54:41.734Z,57.6
2018-07-06T08:56:21.639Z,57.9
2018-07-06T08:57:11.966Z,57.9
2018-07-06T08:58:01.267Z,57.9
2018-07-06T08:58:52.140Z,58
2018-07-06T08:59:42.211Z,58.1
2018-07-06T09:00:32.004Z,58.1
2018-07-06T09:01:21.452Z,58.3
2018-07-06T09:02:11.628Z,58.3
2018-07-06T09:03:01.910Z,58.4
2018-07-06T09:03:51.938Z,58.5
2018-07-06T09:05:32.423Z,58.6
2018-07-06T09:06:22.163Z,58.7
2018-07-06T09:07:12.500Z,58.8
2018-07-06T09:08:02.073Z,58.8
2018-07-06T09:08:52.925Z,58.9
2018-07-06T09:09:42.669Z,58.9
2018-07-06T09:10:32.571Z,59.1
2018-07-06T09:11:22.833Z,59.1
2018-07-06T09:12:12.627Z,59.2
2018-07-06T09:13:04.140Z,59.2
2018-07-06T09:13:52.451Z,59.3
2018-07-06T09:14:43.601Z,59.3
2018-07-06T09:15:32.892Z,59.4
2018-07-06T09:16:23.110Z,59.4
2018-07-06T09:17:13.534Z,59.5
2018-07-06T09:18:03.669Z,59.6
2018-07-06T09:18:53.149Z,59.7
2018-07-06T09:19:45.542Z,59.8
2018-07-06T09:20:33.541Z,59.8
2018-07-06T09:21:23.533Z,59.8
2018-07-06T09:22:14.026Z,59.9
2018-07-06T09:23:03.585Z,60
2018-07-06T09:23:53.508Z,60.1
2018-07-06T09:24:43.698Z,60.1
2018-07-06T09:25:34.925Z,60.2
2018-07-06T09:26:24.145Z,60.3
2018-07-06T09:27:14.089Z,60.3
2018-07-06T09:28:04.127Z,60.4
2018-07-06T09:28:54.493Z,60.4
2018-07-06T09:29:44.568Z,60.5
2018-07-06T09:30:34.628Z,60.6
2018-07-06T09:31:24.518Z,60.7
2018-07-06T09:32:14.965Z,60.8
2018-07-06T09:33:04.942Z,60.8
2018-07-06T09:33:54.513Z,60.9
2018-07-06T09:34:44.402Z,60.9
2018-07-06T09:35:34.465Z,61
2018-07-06T09:36:25.037Z,61.1
2018-07-06T09:37:14.911Z,61.1
2018-07-06T09:38:04.938Z,61.1
2018-07-06T09:38:55.451Z,61.3
2018-07-06T09:39:45.402Z,61.3
2018-07-06T09:40:35.447Z,61.4
2018-07-06T09:41:25.467Z,61.4
2018-07-06T09:42:15.581Z,61.5
2018-07-06T09:43:04.775Z,61.5
2018-07-06T09:43:55.926Z,61.6
2018-07-06T09:44:45.477Z,61.7
2018-07-06T09:45:35.696Z,61.8
2018-07-06T09:46:25.658Z,61.8
2018-07-06T09:47:15.962Z,61.9
2018-07-06T09:48:06.024Z,61.9
2018-07-06T09:48:55.814Z,62
2018-07-06T09:49:46.363Z,62.1
2018-07-06T09:50:36.399Z,62.2
2018-07-06T09:51:25.724Z,62.3
2018-07-06T09:52:16.022Z,62.3
2018-07-06T09:53:06.436Z,62.3
2018-07-06T09:53:56.169Z,62.4
2018-07-06T09:54:46.250Z,62.5
2018-07-06T09:55:36.339Z,62.6
2018-07-06T09:56:26.388Z,62.6
2018-07-06T09:57:16.206Z,62.7
2018-07-06T09:58:07.546Z,62.8
2018-07-06T09:58:56.583Z,62.9
2018-07-06T09:59:46.692Z,62.9
2018-07-06T10:00:36.997Z,63
2018-07-06T10:01:27.014Z,63.1
2018-07-06T10:02:17.156Z,63.1
2018-07-06T10:03:06.331Z,63.2
2018-07-06T10:03:56.912Z,63.3
2018-07-06T10:04:47.086Z,63.3
2018-07-06T10:05:37.387Z,63.4
2018-07-06T10:06:26.897Z,63.4
2018-07-06T10:07:16.981Z,63.5
2018-07-06T10:08:07.044Z,63.6
2018-07-06T10:08:57.415Z,63.6
2018-07-06T10:09:47.028Z,63.7
2018-07-06T10:10:37.767Z,63.8
2018-07-06T10:11:27.829Z,63.9
2018-07-06T10:12:17.357Z,63.9
2018-07-06T10:13:07.697Z,64
2018-07-06T10:13:57.786Z,64.1
2018-07-06T10:14:47.788Z,64.1
2018-07-06T10:15:37.610Z,64.3
2018-07-06T10:16:28.004Z,64.3
2018-07-06T10:17:18.031Z,64.4
2018-07-06T10:18:07.818Z,64.4
2018-07-06T10:18:58.168Z,64.5
2018-07-06T10:19:47.252Z,64.6
2018-07-06T10:20:38.273Z,64.6
2018-07-06T10:21:28.655Z,64.7
2018-07-06T10:22:18.161Z,64.8
2018-07-06T10:23:08.796Z,64.9
2018-07-06T10:23:58.538Z,64.8
2018-07-06T10:24:47.806Z,64.9
2018-07-06T10:25:38.867Z,64.9
2018-07-06T10:26:28.254Z,65.1
2018-07-06T10:27:19.050Z,65.2
2018-07-06T10:28:09.122Z,65.3
2018-07-06T10:28:58.946Z,65.3
2018-07-06T10:29:48.994Z,65.4
2018-07-06T10:30:38.819Z,65.4
2018-07-06T10:31:28.557Z,65.5
2018-07-06T10:32:19.227Z,65.6
2018-07-06T10:33:09.438Z,65.7
2018-07-06T10:34:00.742Z,65.6
2018-07-06T10:34:49.414Z,65.7
2018-07-06T10:35:39.747Z,65.8
2018-07-06T10:36:28.996Z,65.9
2018-07-06T10:37:19.622Z,66.1
2018-07-06T10:38:09.693Z,66.1
2018-07-06T10:38:59.964Z,65.9
2018-07-06T10:39:51.543Z,65.6
2018-07-06T10:40:39.887Z,65.3
2018-07-06T10:41:30.196Z,65.2
2018-07-06T10:42:19.705Z,65
2018-07-06T10:43:10.288Z,65
2018-07-06T10:44:00.405Z,64.8
2018-07-06T10:44:50.456Z,64.7
2018-07-06T10:45:40.499Z,64.6
2018-07-06T10:46:29.731Z,64.5
2018-07-06T10:47:20.129Z,64.4
2018-07-06T10:48:10.142Z,64.3
2018-07-06T10:49:00.767Z,64.2
2018-07-06T10:49:50.856Z,64.1
2018-07-06T10:50:40.369Z,63.9
2018-07-06T10:51:30.760Z,63.9
2018-07-06T10:52:21.101Z,63.8
2018-07-06T10:53:11.132Z,63.7
2018-07-06T10:54:00.885Z,63.6
2018-07-06T10:54:51.249Z,63.6
2018-07-06T10:55:41.078Z,63.5
2018-07-06T10:56:31.085Z,63.4
2018-07-06T10:57:21.162Z,63.4
2018-07-06T10:58:11.263Z,63.4
2018-07-06T10:59:01.016Z,63.4
2018-07-06T10:59:51.683Z,63.4
2018-07-06T11:00:41.142Z,63.6
2018-07-06T11:01:31.559Z,63.7
2018-07-06T11:02:21.846Z,63.8
2018-07-06T11:03:11.660Z,63.8
2018-07-06T11:04:01.691Z,63.8
2018-07-06T11:04:51.973Z,63.8
2018-07-06T11:05:41.320Z,63.9
2018-07-06T11:06:32.146Z,64.1
2018-07-06T11:07:22.230Z,64.1
2018-07-06T11:08:11.726Z,64
2018-07-06T11:09:02.315Z,63.9
2018-07-06T11:09:51.870Z,64
2018-07-06T11:10:42.287Z,64.3